createdAt,value
2019-04-21T00:01:50.318Z,27.50
2019-04-21T00:04:40.551Z,25.57
2019-04-21T00:07:40.318Z,29.90
2019-04-21T00:10:06.427Z,26.37
2019-04-21T00:12:35.666Z,27.87
2019-04-21T00:15:07.367Z,25.80
2019-04-21T00:17:32.114Z,26.20
2019-04-21T00:20:20.480Z,28.43
2019-04-21T00:22:58.593Z,27.10
2019-04-21T00:25:38.864Z,29.73
2019-04-21T00:28:25.374Z,29.80
2019-04-21T00:30:57.915Z,29.87
2019-04-21T00:33:21.412Z,25.07
2019-04-21T00:35:59.930Z,26.07
2019-04-21T00:38:58.752Z,27.97
2019-04-21T00:41:29.410Z,25.93
2019-04-21T00:43:59.848Z,33.23
2019-04-21T00:46:35.160Z,31.70
2019-04-21T00:49:15.240Z,30.37
2019-04-21T00:52:11.438Z,30.27
2019-04-21T00:54:53.773Z,27.00
2019-04-21T00:57:25.259Z,35.90
2019-04-21T00:59:59.137Z,32.17
2019-04-21T01:02:40.255Z,30.27
2019-04-21T01:05:16.938Z,32.13
2019-04-21T01:07:46.958Z,34.23
2019-04-21T01:10:53.198Z,29.93
2019-04-21T01:13:43.943Z,35.80
2019-04-21T01:16:14.808Z,29.73
2019-04-21T01:18:49.265Z,28.63
2019-04-21T01:21:14.055Z,32.63
2019-04-21T01:23:44.574Z,29.43
2019-04-21T01:26:37.264Z,29.60
2019-04-21T01:29:12.108Z,29.30
2019-04-21T01:31:48.252Z,37.70
2019-04-21T01:34:33.032Z,33.83
2019-04-21T01:37:05.661Z,36.57
2019-04-21T01:39:47.943Z,31.07
2019-04-21T01:42:48.415Z,31.80
2019-04-21T01:45:21.883Z,27.90
2019-04-21T01:47:58.535Z,35.73
2019-04-21T01:50:36.594Z,30.27
2019-04-21T01:53:28.310Z,30.97
2019-04-21T01:56:11.759Z,30.50
2019-04-21T01:58:44.285Z,28.70
2019-04-21T02:01:30.158Z,30.63
2019-04-21T02:04:02.766Z,28.33
2019-04-21T02:06:45.630Z,33.50
2019-04-21T02:09:15.356Z,31.33
2019-04-21T02:12:01.037Z,27.43
2019-04-21T02:14:41.239Z,33.90
2019-04-21T02:17:14.532Z,32.67
2019-04-21T02:19:41.220Z,36.27
2019-04-21T02:22:33.871Z,35.07
2019-04-21T02:25:02.963Z,33.97
2019-04-21T02:27:42.975Z,32.97
2019-04-21T02:30:29.699Z,39.87
2019-04-21T02:35:50.769Z,42.53
2019-04-21T02:38:27.620Z,33.37
2019-04-21T02:43:25.154Z,39.40
2019-04-21T02:46:12.476Z,37.90
2019-04-21T02:48:49.033Z,38.90
2019-04-21T02:51:21.862Z,39.77
2019-04-21T02:54:37.368Z,35.87
2019-04-21T02:59:17.041Z,35.83
2019-04-21T03:02:25.031Z,39.80
2019-04-21T03:05:11.528Z,38.73
2019-04-21T03:07:52.096Z,41.23
2019-04-21T03:10:26.717Z,43.43
2019-04-21T03:12:56.951Z,40.70
2019-04-21T03:15:45.083Z,35.40
2019-04-21T03:18:19.102Z,35.60
2019-04-21T03:20:51.124Z,35.23
2019-04-21T03:23:29.450Z,44.37
2019-04-21T03:26:14.301Z,37.27
2019-04-21T03:28:35.648Z,45.73
2019-04-21T03:31:36.006Z,38.10
2019-04-21T03:34:28.524Z,40.87
2019-04-21T03:36:47.575Z,43.17
2019-04-21T03:39:04.618Z,34.33
2019-04-21T03:41:50.540Z,38.00
2019-04-21T03:44:24.378Z,35.90
2019-04-21T03:47:11.068Z,34.03
2019-04-21T03:49:45.477Z,36.57
2019-04-21T03:52:36.604Z,36.37
2019-04-21T03:58:19.512Z,33.40
2019-04-21T04:01:05.564Z,36.90
2019-04-21T04:07:25.015Z,37.10
2019-04-21T04:10:06.466Z,33.93
2019-04-21T04:12:28.565Z,31.40
2019-04-21T04:17:40.773Z,31.93
2019-04-21T04:20:28.127Z,37.00
2019-04-21T04:25:33.523Z,37.93
2019-04-21T04:30:56.353Z,39.67
2019-04-21T04:33:41.787Z,40.13
2019-04-21T04:36:33.917Z,39.57
2019-04-21T04:39:01.955Z,39.37
2019-04-21T04:41:32.346Z,38.27
2019-04-21T04:44:13.702Z,40.90
2019-04-21T04:52:32.514Z,49.67
2019-04-21T04:54:59.499Z,47.83
2019-04-21T05:00:28.829Z,53.97
2019-04-21T05:02:40.243Z,60.53
2019-04-21T05:05:26.688Z,56.07
2019-04-21T05:08:31.507Z,54.43
2019-04-21T05:10:54.444Z,50.10
2019-04-21T05:13:20.406Z,49.63
2019-04-21T05:15:55.878Z,49.53
2019-04-21T05:18:25.350Z,46.10
2019-04-21T05:21:12.460Z,44.10
2019-04-21T05:23:32.608Z,46.37
2019-04-21T05:26:03.259Z,47.80
2019-04-21T05:28:41.970Z,41.70
2019-04-21T05:31:46.304Z,45.30
2019-04-21T05:34:22.365Z,49.93
2019-04-21T05:37:01.425Z,40.23
2019-04-21T05:39:52.409Z,43.60
2019-04-21T05:42:28.408Z,43.50
2019-04-21T05:45:31.251Z,50.20
2019-04-21T05:48:19.252Z,49.07
2019-04-21T05:50:46.150Z,40.03
2019-04-21T05:53:32.238Z,39.00
2019-04-21T05:56:03.604Z,42.40
2019-04-21T05:58:40.630Z,38.50
2019-04-21T06:01:23.734Z,39.70
2019-04-21T06:03:59.677Z,47.40
2019-04-21T06:06:33.617Z,39.33
2019-04-21T06:09:08.240Z,36.50
2019-04-21T06:11:42.456Z,42.70
2019-04-21T06:14:20.385Z,38.07
2019-04-21T06:17:04.594Z,39.80
2019-04-21T06:19:45.131Z,40.90
2019-04-21T06:22:10.464Z,36.03
2019-04-21T06:25:15.228Z,39.63
2019-04-21T06:27:34.093Z,44.63
2019-04-21T06:30:03.319Z,37.63
2019-04-21T06:32:50.542Z,36.47
2019-04-21T06:39:06.430Z,28.00
2019-04-21T06:44:12.906Z,31.20
2019-04-21T06:46:44.666Z,28.87
2019-04-21T06:49:22.266Z,28.93
2019-04-21T06:52:10.932Z,29.33
2019-04-21T06:54:45.200Z,25.80
2019-04-21T06:57:18.432Z,32.07
2019-04-21T06:59:52.085Z,20.80
2019-04-21T07:02:43.897Z,24.73
2019-04-21T07:05:07.925Z,23.80
2019-04-21T07:07:43.200Z,21.97
2019-04-21T07:10:20.991Z,23.10
2019-04-21T07:12:51.110Z,21.23
2019-04-21T07:15:40.931Z,20.40
2019-04-21T07:18:11.008Z,21.57
2019-04-21T07:20:49.041Z,19.57
2019-04-21T07:23:30.304Z,21.53
2019-04-21T07:26:02.746Z,21.23
2019-04-21T07:28:47.938Z,27.70
2019-04-21T07:31:25.005Z,24.17
2019-04-21T07:34:21.321Z,24.60
2019-04-21T07:36:46.410Z,21.40
2019-04-21T07:39:10.400Z,24.77
2019-04-21T07:41:45.141Z,21.70
2019-04-21T07:44:18.127Z,24.97
2019-04-21T07:46:56.375Z,21.07
2019-04-21T07:49:53.036Z,21.90
2019-04-21T07:52:49.100Z,22.23
2019-04-21T07:57:56.153Z,20.47
2019-04-21T08:00:45.508Z,22.87
2019-04-21T08:03:15.935Z,21.00
2019-04-21T08:05:53.037Z,20.73
2019-04-21T08:08:31.460Z,21.00
2019-04-21T08:11:01.591Z,20.80
2019-04-21T08:16:24.116Z,19.33
2019-04-21T08:19:03.222Z,21.30
2019-04-21T08:21:33.894Z,22.70
2019-04-21T08:24:07.693Z,20.83
2019-04-21T08:27:05.117Z,20.07
2019-04-21T08:29:44.804Z,19.83
2019-04-21T08:32:16.066Z,18.77
2019-04-21T08:37:11.746Z,18.73
2019-04-21T08:40:04.431Z,19.10
2019-04-21T08:42:35.831Z,17.00
2019-04-21T08:45:11.101Z,19.63
2019-04-21T08:47:45.756Z,18.10
2019-04-21T08:50:20.889Z,18.60
2019-04-21T08:55:51.047Z,15.00
2019-04-21T08:58:57.557Z,17.47
2019-04-21T09:01:46.578Z,17.47
2019-04-21T09:04:13.216Z,16.93
2019-04-21T09:07:05.145Z,17.03
2019-04-21T09:09:29.116Z,17.87
2019-04-21T09:12:04.441Z,18.10
2019-04-21T09:14:41.486Z,17.97
2019-04-21T09:17:14.858Z,19.50
2019-04-21T09:22:37.387Z,18.47
2019-04-21T09:25:09.150Z,19.60
2019-04-21T09:27:53.697Z,18.43
2019-04-21T09:30:08.718Z,21.27
2019-04-21T09:32:44.567Z,16.80
2019-04-21T09:35:20.848Z,16.87
2019-04-21T09:38:03.954Z,19.90
2019-04-21T09:40:40.092Z,17.30
2019-04-21T09:43:13.798Z,17.47
2019-04-21T09:45:49.630Z,18.00
2019-04-21T09:48:37.425Z,14.60
2019-04-21T09:51:06.467Z,15.63
2019-04-21T09:53:43.792Z,15.67
2019-04-21T09:56:30.495Z,18.07
2019-04-21T09:59:04.087Z,18.00
2019-04-21T10:01:50.069Z,16.93
2019-04-21T10:04:10.434Z,17.10
2019-04-21T10:06:45.655Z,18.87
2019-04-21T10:09:33.346Z,17.10
2019-04-21T10:12:09.863Z,16.70
2019-04-21T10:14:45.225Z,18.00
2019-04-21T10:17:23.949Z,16.10
2019-04-21T10:19:59.196Z,16.33
2019-04-21T10:22:35.593Z,15.87
2019-04-21T10:25:12.563Z,18.17
2019-04-21T10:27:47.908Z,17.00
2019-04-21T10:30:24.598Z,15.03
2019-04-21T10:33:00.743Z,16.77
2019-04-21T10:35:37.056Z,16.10
2019-04-21T10:38:22.678Z,18.00
2019-04-21T10:40:49.718Z,15.30
2019-04-21T10:43:25.697Z,14.60
2019-04-21T10:46:01.961Z,15.70
2019-04-21T10:48:38.231Z,17.00
2019-04-21T10:51:14.896Z,15.90
2019-04-21T10:53:53.874Z,15.43
2019-04-21T10:56:34.384Z,12.60
2019-04-21T10:59:04.600Z,10.90
2019-04-21T11:01:41.052Z,13.17
2019-04-21T11:04:34.661Z,11.70
2019-04-21T11:07:26.180Z,11.20
2019-04-21T11:10:22.175Z,11.80
2019-04-21T11:12:58.623Z,12.07
2019-04-21T11:15:34.993Z,10.03
2019-04-21T11:18:10.296Z,12.27
2019-04-21T11:20:46.627Z,12.60
2019-04-21T11:23:22.548Z,8.83
2019-04-21T11:25:58.110Z,12.27
2019-04-21T11:28:34.617Z,10.10
2019-04-21T11:31:11.072Z,8.07
2019-04-21T11:33:47.146Z,8.70
2019-04-21T11:36:22.609Z,11.20
2019-04-21T11:39:29.237Z,9.63
2019-04-21T11:41:57.467Z,10.13
2019-04-21T11:44:33.145Z,8.33
2019-04-21T11:47:10.521Z,10.53
2019-04-21T11:49:45.689Z,8.43
2019-04-21T11:52:22.603Z,10.10
2019-04-21T11:54:58.613Z,7.93
2019-04-21T11:57:38.320Z,7.63
2019-04-21T12:00:11.534Z,8.10
2019-04-21T12:02:47.757Z,7.40
2019-04-21T12:05:23.764Z,8.80
2019-04-21T12:08:00.144Z,8.50
2019-04-21T12:10:35.568Z,7.10
2019-04-21T12:13:11.990Z,7.57
2019-04-21T12:15:47.271Z,13.27
2019-04-21T12:18:25.048Z,7.27
2019-04-21T12:20:59.479Z,6.93
2019-04-21T12:23:34.792Z,6.20
2019-04-21T12:26:10.099Z,6.53
2019-04-21T12:28:45.950Z,6.87
2019-04-21T12:31:41.367Z,7.10
2019-04-21T12:34:16.569Z,7.53
2019-04-21T12:36:52.822Z,7.20
2019-04-21T12:39:27.885Z,7.70
2019-04-21T12:42:04.667Z,7.03
2019-04-21T12:44:41.256Z,7.60
2019-04-21T12:47:16.532Z,6.17
2019-04-21T12:49:52.057Z,7.70
2019-04-21T12:52:27.749Z,9.60
2019-04-21T12:55:05.733Z,8.20
2019-04-21T12:57:41.881Z,6.90
2019-04-21T13:00:18.826Z,6.47
2019-04-21T13:02:54.173Z,5.40
2019-04-21T13:05:29.624Z,6.23
2019-04-21T13:08:04.826Z,6.30
2019-04-21T13:10:40.217Z,6.00
2019-04-21T13:13:15.324Z,6.50
2019-04-21T13:15:51.567Z,7.87
2019-04-21T13:18:27.169Z,6.47
2019-04-21T13:21:03.900Z,7.60
2019-04-21T13:23:39.150Z,6.33
2019-04-21T13:26:16.147Z,5.53
2019-04-21T13:28:52.258Z,6.23
2019-04-21T13:31:27.922Z,5.33
2019-04-21T13:34:04.167Z,5.77
2019-04-21T13:36:41.416Z,5.30
2019-04-21T13:40:07.855Z,5.00
2019-04-21T13:42:39.408Z,6.13
2019-04-21T13:45:14.289Z,5.17
2019-04-21T13:47:54.755Z,5.50
2019-04-21T13:50:31.188Z,5.40
2019-04-21T13:53:06.959Z,5.20
2019-04-21T13:55:42.841Z,4.80
2019-04-21T13:58:17.822Z,4.90
2019-04-21T14:00:54.230Z,4.17
2019-04-21T14:03:29.381Z,5.00
2019-04-21T14:06:04.865Z,4.13
2019-04-21T14:09:01.168Z,4.83
2019-04-21T14:11:38.730Z,4.37
2019-04-21T14:14:14.444Z,4.63
2019-04-21T14:16:49.907Z,4.40
2019-04-21T14:19:25.615Z,4.63
2019-04-21T14:22:01.210Z,4.20
2019-04-21T14:24:38.664Z,4.60
2019-04-21T14:27:14.379Z,4.43
2019-04-21T14:29:51.578Z,4.00
2019-04-21T14:32:29.535Z,4.43
2019-04-21T14:35:06.936Z,4.30
2019-04-21T14:37:44.512Z,4.20
2019-04-21T14:40:23.699Z,4.07
2019-04-21T14:43:00.262Z,13.93
2019-04-21T14:45:41.095Z,4.70
2019-04-21T14:48:34.923Z,4.30
2019-04-21T14:52:05.465Z,3.97
2019-04-21T14:55:00.603Z,4.40
2019-04-21T14:57:36.983Z,4.00
2019-04-21T15:00:22.854Z,4.07
2019-04-21T15:02:57.918Z,4.00
2019-04-21T15:05:33.475Z,5.10
2019-04-21T15:08:11.029Z,3.27
2019-04-21T15:10:47.201Z,4.07
2019-04-21T15:13:23.712Z,3.63
2019-04-21T15:15:58.873Z,3.90
2019-04-21T15:18:34.689Z,3.90
2019-04-21T15:21:11.046Z,3.87
2019-04-21T15:23:48.457Z,4.07
2019-04-21T15:26:24.150Z,3.80
2019-04-21T15:28:59.422Z,3.30
2019-04-21T15:31:39.192Z,5.60
2019-04-21T15:34:13.020Z,3.70
2019-04-21T15:36:52.404Z,4.10
2019-04-21T15:39:28.033Z,4.10
2019-04-21T15:42:03.397Z,4.70
2019-04-21T15:44:38.777Z,4.83
2019-04-21T15:47:13.940Z,3.73
2019-04-21T15:50:02.904Z,2.87
2019-04-21T15:52:33.850Z,3.83
2019-04-21T15:55:39.011Z,3.50
2019-04-21T15:58:34.617Z,4.43
2019-04-21T16:01:38.895Z,3.00
2019-04-21T16:04:14.707Z,3.03
2019-04-21T16:06:50.685Z,3.10
2019-04-21T16:09:28.271Z,3.37
2019-04-21T16:12:03.980Z,3.00
2019-04-21T16:14:44.987Z,3.17
2019-04-21T16:17:21.287Z,3.97
2019-04-21T16:19:56.469Z,3.30
2019-04-21T16:22:32.660Z,3.40
2019-04-21T16:25:10.614Z,2.97
2019-04-21T16:27:45.828Z,2.80
2019-04-21T16:30:22.044Z,3.17
2019-04-21T16:32:57.146Z,3.30
2019-04-21T16:35:33.707Z,5.13
2019-04-21T16:38:08.859Z,3.77
2019-04-21T16:40:52.536Z,3.33
2019-04-21T16:43:20.950Z,3.13
2019-04-21T16:45:57.113Z,3.33
2019-04-21T16:48:33.799Z,2.90
2019-04-21T16:51:09.914Z,2.93
2019-04-21T16:53:50.300Z,3.37
2019-04-21T16:56:52.335Z,3.23
2019-04-21T16:59:32.729Z,3.20
2019-04-21T17:02:07.882Z,3.23
2019-04-21T17:04:44.368Z,3.03
2019-04-21T17:07:19.984Z,2.70
2019-04-21T17:09:56.752Z,2.63
2019-04-21T17:12:33.015Z,4.33
2019-04-21T17:15:25.198Z,2.40
2019-04-21T17:18:06.057Z,3.97
2019-04-21T17:20:34.246Z,3.30
2019-04-21T17:23:01.766Z,3.80
2019-04-21T17:25:41.175Z,3.37
2019-04-21T17:28:17.371Z,4.37
2019-04-21T17:30:55.757Z,3.67
2019-04-21T17:33:32.349Z,3.10
2019-04-21T17:36:09.238Z,2.70
2019-04-21T17:38:44.273Z,3.00
2019-04-21T17:41:28.996Z,2.73
2019-04-21T17:43:56.286Z,3.20
2019-04-21T17:46:43.138Z,3.57
2019-04-21T17:49:08.644Z,2.67
2019-04-21T17:52:21.630Z,4.50
2019-04-21T17:55:18.426Z,4.03
2019-04-21T17:58:06.596Z,3.40
2019-04-21T18:03:40.758Z,3.00
2019-04-21T18:06:01.641Z,3.97
2019-04-21T18:08:47.931Z,2.80
2019-04-21T18:11:15.375Z,2.73
2019-04-21T18:13:41.979Z,2.50
2019-04-21T18:16:26.637Z,2.33
2019-04-21T18:18:56.998Z,2.27
2019-04-21T18:21:46.912Z,2.63
2019-04-21T18:24:22.475Z,2.50
2019-04-21T18:26:57.244Z,2.20
2019-04-21T18:29:31.709Z,2.40
2019-04-21T18:32:08.339Z,2.27
2019-04-21T18:35:13.531Z,3.77
2019-04-21T18:38:08.094Z,2.60
2019-04-21T18:40:42.337Z,3.00
2019-04-21T18:46:31.399Z,4.73
2019-04-21T18:48:53.426Z,5.43
2019-04-21T18:51:57.161Z,4.40
2019-04-21T18:54:45.813Z,5.60
2019-04-21T18:57:18.622Z,6.30
2019-04-21T18:59:47.270Z,5.60
2019-04-21T19:02:22.472Z,5.47
2019-04-21T19:05:05.338Z,6.97
2019-04-21T19:07:59.282Z,7.87
2019-04-21T19:10:35.464Z,7.03
2019-04-21T19:13:28.262Z,9.17
2019-04-21T19:15:48.147Z,7.90
2019-04-21T19:20:54.039Z,7.53
2019-04-21T19:23:45.316Z,8.13
2019-04-21T19:26:21.897Z,7.37
2019-04-21T19:28:56.052Z,7.20
2019-04-21T19:31:24.815Z,7.70
2019-04-21T19:33:51.681Z,9.87
2019-04-21T19:36:21.421Z,7.37
2019-04-21T19:39:07.593Z,7.40
2019-04-21T19:41:55.538Z,8.73
2019-04-21T19:44:26.333Z,8.40
2019-04-21T19:47:13.749Z,11.10
2019-04-21T19:49:50.066Z,7.50
2019-04-21T19:52:20.290Z,8.77
2019-04-21T19:54:48.198Z,9.97
2019-04-21T19:57:20.976Z,8.57
2019-04-21T20:00:01.368Z,11.67
2019-04-21T20:02:34.286Z,9.60
2019-04-21T20:05:16.442Z,9.83
2019-04-21T20:08:04.049Z,8.80
2019-04-21T20:10:44.162Z,9.07
2019-04-21T20:13:26.112Z,9.37
2019-04-21T20:15:59.750Z,7.90
2019-04-21T20:18:25.142Z,8.97
2019-04-21T20:20:54.353Z,7.97
2019-04-21T20:23:34.864Z,8.77
2019-04-21T20:26:09.557Z,7.77
2019-04-21T20:28:53.168Z,8.63
2019-04-21T20:31:36.114Z,8.70
2019-04-21T20:34:17.742Z,7.97
2019-04-21T20:36:59.749Z,9.70
2019-04-21T20:39:21.343Z,8.10
2019-04-21T20:42:01.865Z,8.97
2019-04-21T20:44:43.752Z,7.60
2019-04-21T20:47:16.058Z,8.70
2019-04-21T20:49:57.178Z,8.33
2019-04-21T20:52:38.353Z,10.30
2019-04-21T20:55:07.683Z,7.70
2019-04-21T20:57:50.637Z,7.13
2019-04-21T21:00:30.148Z,8.33
2019-04-21T21:03:09.246Z,10.13
2019-04-21T21:05:37.587Z,13.77
2019-04-21T21:08:24.061Z,11.60
2019-04-21T21:10:52.764Z,11.23
2019-04-21T21:13:31.982Z,7.90
2019-04-21T21:16:38.501Z,7.77
2019-04-21T21:21:23.000Z,8.10
2019-04-21T21:23:58.936Z,8.70
2019-04-21T21:26:37.723Z,8.03
2019-04-21T21:29:06.506Z,8.27
2019-04-21T21:31:49.083Z,7.70
2019-04-21T21:34:28.091Z,10.10
2019-04-21T21:37:17.735Z,7.40
2019-04-21T21:39:48.850Z,7.37
2019-04-21T21:42:02.732Z,7.73
2019-04-21T21:44:41.723Z,9.10
2019-04-21T21:47:24.196Z,14.23
2019-04-21T21:50:01.307Z,10.23
2019-04-21T21:52:39.790Z,10.43
2019-04-21T21:55:05.699Z,11.40
2019-04-21T21:57:47.579Z,9.87
2019-04-21T22:00:21.813Z,11.20
2019-04-21T22:03:03.873Z,10.57
2019-04-21T22:05:48.244Z,10.70
2019-04-21T22:08:12.425Z,10.63
2019-04-21T22:10:49.533Z,10.57
2019-04-21T22:13:37.639Z,11.90
2019-04-21T22:16:12.491Z,11.30
2019-04-21T22:19:04.720Z,12.93
2019-04-21T22:21:44.363Z,13.00
2019-04-21T22:24:05.700Z,10.90
2019-04-21T22:26:35.050Z,12.93
2019-04-21T22:29:10.024Z,11.47
2019-04-21T22:32:15.254Z,12.23
2019-04-21T22:34:52.313Z,12.60
2019-04-21T22:37:38.032Z,17.30
2019-04-21T22:40:12.705Z,11.57
2019-04-21T22:42:48.515Z,15.67
2019-04-21T22:45:15.470Z,12.53
2019-04-21T22:47:52.020Z,13.73
2019-04-21T22:50:31.168Z,12.00
2019-04-21T22:53:09.622Z,10.80
2019-04-21T22:55:45.004Z,15.27
2019-04-21T22:58:28.223Z,11.70
2019-04-21T23:01:01.569Z,15.60
2019-04-21T23:03:35.609Z,18.63
2019-04-21T23:06:19.195Z,13.53
2019-04-21T23:08:49.472Z,13.40
2019-04-21T23:11:28.087Z,14.30
2019-04-21T23:14:06.009Z,12.20
2019-04-21T23:16:41.426Z,15.53
2019-04-21T23:19:28.016Z,15.73
2019-04-21T23:22:09.522Z,17.33
2019-04-21T23:24:54.557Z,13.27
2019-04-21T23:27:15.008Z,12.67
2019-04-21T23:30:09.807Z,13.37
2019-04-21T23:32:30.433Z,13.17
2019-04-21T23:34:56.193Z,15.23
2019-04-21T23:37:34.112Z,12.87
2019-04-21T23:40:16.329Z,12.80
2019-04-21T23:42:49.043Z,13.40
2019-04-21T23:45:30.491Z,13.80
2019-04-21T23:48:15.885Z,12.70
2019-04-21T23:50:45.897Z,13.27
2019-04-21T23:53:15.450Z,13.10
2019-04-21T23:55:50.477Z,14.80
2019-04-21T23:58:29.452Z,14.27
